createdAt,value
2022-10-19T00:00:37.580Z,46.16
2022-10-19T00:01:37.441Z,46.77
2022-10-19T00:02:38.164Z,47.35
2022-10-19T00:03:37.417Z,44.98
2022-10-19T00:04:37.649Z,41.69
2022-10-19T00:05:37.387Z,44.75
2022-10-19T00:06:37.391Z,50.82
2022-10-19T00:07:37.486Z,38.81
2022-10-19T00:08:37.484Z,57.76
2022-10-19T00:09:37.512Z,45.68
2022-10-19T00:10:37.286Z,51.43
2022-10-19T00:11:37.264Z,58.70
2022-10-19T00:12:37.283Z,49.80
2022-10-19T00:13:37.347Z,50.92
2022-10-19T00:14:38.295Z,47.70
2022-10-19T00:15:37.211Z,44.57
2022-10-19T00:16:37.504Z,52.58
2022-10-19T00:17:37.194Z,55.72
2022-10-19T00:18:37.238Z,52.27
2022-10-19T00:19:37.278Z,47.76
2022-10-19T00:20:37.260Z,45.41
2022-10-19T00:21:37.454Z,49.23
2022-10-19T00:22:37.159Z,49.75
2022-10-19T00:23:37.156Z,40.08
2022-10-19T00:24:37.207Z,41.08
2022-10-19T00:25:37.110Z,51.28
2022-10-19T00:26:37.184Z,52.57
2022-10-19T00:27:37.092Z,39.25
2022-10-19T00:28:37.185Z,54.03
2022-10-19T00:29:37.144Z,52.77
2022-10-19T00:30:37.147Z,53.84
2022-10-19T00:31:37.127Z,50.54
2022-10-19T00:32:37.080Z,46.79
2022-10-19T00:33:37.251Z,57.19
2022-10-19T00:34:37.134Z,48.44
2022-10-19T00:35:37.003Z,52.69
2022-10-19T00:36:37.157Z,51.98
2022-10-19T00:37:37.081Z,39.94
2022-10-19T00:38:37.063Z,52.81
2022-10-19T00:39:37.016Z,43.65
2022-10-19T00:40:37.469Z,43.37
2022-10-19T00:41:37.026Z,57.06
2022-10-19T00:42:37.112Z,52.82
2022-10-19T00:43:37.128Z,47.42
2022-10-19T00:44:37.079Z,46.68
2022-10-19T00:45:37.307Z,48.35
2022-10-19T00:46:37.028Z,56.70
2022-10-19T00:47:36.833Z,56.83
2022-10-19T00:48:37.129Z,48.50
2022-10-19T00:49:36.939Z,49.55
2022-10-19T00:50:36.894Z,35.42
2022-10-19T00:51:36.835Z,38.98
2022-10-19T00:52:37.165Z,43.63
2022-10-19T00:53:36.848Z,51.57
2022-10-19T00:54:36.857Z,55.74
2022-10-19T00:55:36.945Z,54.38
2022-10-19T00:56:36.938Z,52.91
2022-10-19T00:57:36.897Z,52.84
2022-10-19T00:58:36.827Z,49.86
2022-10-19T00:59:36.869Z,49.25
2022-10-19T01:00:37.695Z,57.50
2022-10-19T01:01:36.950Z,49.93
2022-10-19T01:02:37.315Z,47.27
2022-10-19T01:03:36.810Z,50.93
2022-10-19T01:04:37.078Z,45.80
2022-10-19T01:05:36.779Z,46.04
2022-10-19T01:06:37.046Z,53.27
2022-10-19T01:07:37.069Z,44.26
2022-10-19T01:08:36.669Z,46.81
2022-10-19T01:09:36.909Z,48.83
2022-10-19T01:10:36.685Z,50.53
2022-10-19T01:11:36.670Z,36.20
2022-10-19T01:12:36.893Z,31.69
2022-10-19T01:13:36.690Z,32.94
2022-10-19T01:14:36.758Z,45.17
2022-10-19T01:15:36.639Z,45.10
2022-10-19T01:16:37.076Z,52.13
2022-10-19T01:17:36.791Z,49.06
2022-10-19T01:18:36.899Z,45.21
2022-10-19T01:19:36.998Z,40.97
2022-10-19T01:20:36.630Z,45.50
2022-10-19T01:21:36.675Z,44.31
2022-10-19T01:22:36.678Z,49.62
2022-10-19T01:23:36.710Z,46.10
2022-10-19T01:24:39.819Z,49.24
2022-10-19T01:25:36.623Z,47.61
2022-10-19T01:26:36.872Z,49.09
2022-10-19T01:27:37.132Z,48.43
2022-10-19T01:28:36.639Z,42.16
2022-10-19T01:29:36.688Z,49.20
2022-10-19T01:30:36.629Z,33.22
2022-10-19T01:31:36.770Z,30.27
2022-10-19T01:32:36.519Z,37.67
2022-10-19T01:33:36.821Z,49.22
2022-10-19T01:34:36.569Z,48.91
2022-10-19T01:35:36.778Z,43.08
2022-10-19T01:36:36.544Z,46.19
2022-10-19T01:37:36.799Z,50.12
2022-10-19T01:38:36.480Z,51.20
2022-10-19T01:39:36.611Z,38.28
2022-10-19T01:40:37.555Z,35.65
2022-10-19T01:41:36.399Z,49.73
2022-10-19T01:42:36.595Z,53.04
2022-10-19T01:43:36.664Z,52.11
2022-10-19T01:44:36.546Z,45.44
2022-10-19T01:45:37.205Z,43.69
2022-10-19T01:46:36.403Z,45.42
2022-10-19T01:47:37.334Z,45.53
2022-10-19T01:48:36.375Z,46.49
2022-10-19T01:49:36.342Z,48.43
2022-10-19T01:50:39.109Z,48.04
2022-10-19T01:51:36.437Z,44.26
2022-10-19T01:52:36.675Z,49.66
2022-10-19T01:53:36.324Z,50.53
2022-10-19T01:54:36.322Z,50.51
2022-10-19T01:55:36.485Z,35.65
2022-10-19T01:56:36.303Z,44.64
2022-10-19T01:57:36.215Z,44.84
2022-10-19T01:58:36.206Z,49.84
2022-10-19T01:59:36.578Z,51.37
2022-10-19T02:00:36.502Z,46.75
2022-10-19T02:01:36.401Z,44.45
2022-10-19T02:02:36.597Z,37.37
2022-10-19T02:03:36.222Z,35.46
2022-10-19T02:04:36.477Z,44.32
2022-10-19T02:05:36.221Z,38.67
2022-10-19T02:06:36.184Z,40.26
2022-10-19T02:07:36.206Z,33.88
2022-10-19T02:08:36.324Z,44.97
2022-10-19T02:09:36.324Z,31.78
2022-10-19T02:10:36.291Z,33.85
2022-10-19T02:11:36.403Z,49.52
2022-10-19T02:12:36.401Z,40.49
2022-10-19T02:13:36.135Z,48.88
2022-10-19T02:14:36.342Z,51.67
2022-10-19T02:15:36.182Z,42.28
2022-10-19T02:16:36.325Z,52.46
2022-10-19T02:17:36.145Z,55.59
2022-10-19T02:18:36.700Z,42.61
2022-10-19T02:19:36.395Z,44.59
2022-10-19T02:20:36.419Z,50.07
2022-10-19T02:21:36.295Z,42.19
2022-10-19T02:22:36.445Z,39.90
2022-10-19T02:23:36.299Z,38.39
2022-10-19T02:24:36.166Z,40.40
2022-10-19T02:25:36.140Z,53.80
2022-10-19T02:26:36.860Z,45.50
2022-10-19T02:27:36.168Z,47.12
2022-10-19T02:28:36.410Z,49.46
2022-10-19T02:29:36.015Z,38.75
2022-10-19T02:30:36.077Z,38.34
2022-10-19T02:31:36.336Z,50.69
2022-10-19T02:45:23.045Z,51.34
2022-10-19T02:46:23.155Z,53.25
2022-10-19T02:47:22.873Z,50.71
2022-10-19T02:48:22.782Z,51.29
2022-10-19T02:49:22.757Z,53.08
2022-10-19T02:50:22.725Z,50.86
2022-10-19T02:51:22.679Z,47.24
2022-10-19T02:52:22.864Z,45.55
2022-10-19T02:53:22.642Z,51.50
2022-10-19T02:54:22.670Z,46.78
2022-10-19T02:55:24.025Z,47.42
2022-10-19T02:56:24.201Z,55.80
2022-10-19T02:57:24.199Z,53.95
2022-10-19T02:58:23.977Z,49.36
2022-10-19T02:59:24.222Z,54.10
2022-10-19T03:00:24.027Z,44.57
2022-10-19T03:01:24.527Z,47.76
2022-10-19T03:02:24.020Z,50.55
2022-10-19T03:03:23.958Z,50.21
2022-10-19T03:04:24.135Z,48.11
2022-10-19T03:05:23.832Z,45.49
2022-10-19T03:06:23.964Z,52.02
2022-10-19T03:07:24.040Z,50.05
2022-10-19T03:08:23.801Z,54.95
2022-10-19T03:09:24.749Z,51.53
2022-10-19T03:10:23.835Z,47.76
2022-10-19T03:11:24.074Z,49.06
2022-10-19T03:12:23.906Z,52.69
2022-10-19T03:13:24.058Z,42.96
2022-10-19T03:14:23.831Z,48.46
2022-10-19T03:15:23.828Z,58.16
2022-10-19T03:16:23.936Z,54.22
2022-10-19T03:17:23.868Z,54.36
2022-10-19T03:18:23.999Z,55.94
2022-10-19T03:19:23.870Z,54.46
2022-10-19T03:20:23.698Z,54.55
2022-10-19T03:21:24.834Z,54.63
2022-10-19T03:22:23.925Z,56.10
2022-10-19T03:23:24.139Z,55.87
2022-10-19T03:24:24.157Z,56.91
2022-10-19T03:25:24.162Z,51.78
2022-10-19T03:26:23.768Z,54.61
2022-10-19T03:27:24.016Z,56.29
2022-10-19T03:28:24.202Z,57.36
2022-10-19T03:29:24.028Z,57.01
2022-10-19T03:30:24.022Z,56.13
2022-10-19T03:31:24.382Z,57.01
2022-10-19T03:32:23.728Z,54.40
2022-10-19T03:34:23.825Z,52.97
2022-10-19T03:35:23.903Z,57.01
2022-10-19T03:36:23.634Z,57.24
2022-10-19T03:37:23.749Z,57.03
2022-10-19T03:38:23.595Z,54.76
2022-10-19T03:39:23.506Z,55.97
2022-10-19T03:40:23.654Z,57.15
2022-10-19T03:41:23.471Z,52.06
2022-10-19T03:42:23.615Z,57.52
2022-10-19T03:43:23.529Z,58.33
2022-10-19T03:44:23.453Z,52.89
2022-10-19T03:45:23.661Z,55.22
2022-10-19T03:46:23.712Z,56.30
2022-10-19T03:47:23.633Z,57.51
2022-10-19T03:48:23.450Z,57.01
2022-10-19T03:49:23.706Z,56.39
2022-10-19T03:50:23.471Z,56.86
2022-10-19T03:51:23.583Z,57.32
2022-10-19T03:52:23.522Z,58.29
2022-10-19T03:53:23.420Z,56.78
2022-10-19T03:54:26.575Z,57.96
2022-10-19T03:55:23.543Z,57.82
2022-10-19T03:56:23.972Z,52.39
2022-10-19T03:57:23.579Z,59.23
2022-10-19T03:58:23.426Z,57.35
2022-10-19T03:59:23.616Z,57.77
2022-10-19T04:00:23.493Z,59.29
2022-10-19T04:01:23.475Z,57.82
2022-10-19T04:02:23.221Z,58.79
2022-10-19T04:03:23.466Z,57.95
2022-10-19T04:04:24.164Z,59.76
2022-10-19T04:05:23.304Z,57.56
2022-10-19T04:06:23.328Z,55.39
2022-10-19T04:07:23.356Z,54.73
2022-10-19T04:08:23.249Z,57.06
2022-10-19T04:09:23.322Z,54.90
2022-10-19T04:10:23.166Z,56.71
2022-10-19T04:11:24.168Z,57.15
2022-10-19T04:12:23.230Z,55.06
2022-10-19T04:13:23.304Z,58.22
2022-10-19T04:14:32.333Z,55.30
2022-10-19T04:15:25.145Z,58.92
2022-10-19T04:16:24.152Z,57.99
2022-10-19T04:17:23.224Z,58.80
2022-10-19T04:18:23.895Z,60.17
2022-10-19T04:19:23.362Z,57.21
2022-10-19T04:20:23.151Z,61.22
2022-10-19T04:21:23.074Z,59.74
2022-10-19T04:22:23.231Z,56.67
2022-10-19T04:23:23.258Z,59.38
2022-10-19T04:24:23.061Z,56.45
2022-10-19T04:25:23.223Z,55.75
2022-10-19T04:26:23.159Z,60.49
2022-10-19T04:27:23.083Z,59.49
2022-10-19T04:28:23.588Z,59.52
2022-10-19T04:29:25.066Z,60.95
2022-10-19T04:30:23.425Z,59.77
2022-10-19T04:31:23.124Z,59.59
2022-10-19T04:32:23.498Z,60.48
2022-10-19T04:33:23.200Z,58.31
2022-10-19T04:34:22.998Z,61.17
2022-10-19T04:35:23.016Z,61.18
2022-10-19T04:36:22.816Z,62.67
2022-10-19T04:37:22.954Z,60.40
2022-10-19T04:38:22.839Z,60.28
2022-10-19T04:39:22.941Z,60.76
2022-10-19T04:40:22.843Z,57.90
2022-10-19T04:41:22.803Z,60.42
2022-10-19T04:42:22.954Z,60.61
2022-10-19T04:43:22.855Z,58.85
2022-10-19T04:45:22.799Z,58.96
2022-10-19T04:46:22.886Z,60.75
2022-10-19T04:47:24.036Z,57.76
2022-10-19T04:48:22.814Z,59.66
2022-10-19T04:49:22.936Z,61.02
2022-10-19T04:50:55.398Z,58.35
2022-10-19T04:51:23.283Z,57.68
2022-10-19T04:52:23.006Z,56.65
2022-10-19T04:53:25.747Z,61.83
2022-10-19T04:54:24.067Z,55.60
2022-10-19T04:55:22.679Z,58.60
2022-10-19T04:56:22.669Z,60.32
2022-10-19T04:57:22.826Z,58.52
2022-10-19T04:58:22.857Z,57.06
2022-10-19T04:59:23.312Z,58.22
2022-10-19T05:00:22.582Z,58.18
2022-10-19T05:01:22.734Z,58.91
2022-10-19T05:02:22.630Z,57.42
2022-10-19T05:03:22.816Z,60.12
2022-10-19T05:04:22.945Z,57.16
2022-10-19T05:05:22.596Z,58.25
2022-10-19T05:06:22.754Z,57.05
2022-10-19T05:07:22.683Z,58.88
2022-10-19T05:08:22.649Z,57.58
2022-10-19T05:09:23.166Z,58.81
2022-10-19T05:10:22.526Z,57.32
2022-10-19T05:11:22.683Z,56.61
2022-10-19T05:12:22.557Z,59.38
2022-10-19T05:13:23.430Z,60.33
2022-10-19T05:14:22.584Z,59.94
2022-10-19T05:15:22.464Z,57.59
2022-10-19T05:16:22.634Z,59.65
2022-10-19T05:17:22.477Z,57.59
2022-10-19T05:18:22.570Z,60.10
2022-10-19T05:19:22.471Z,57.36
2022-10-19T05:20:22.427Z,57.59
2022-10-19T05:21:22.478Z,59.84
2022-10-19T05:22:22.436Z,59.68
2022-10-19T05:23:23.132Z,57.04
2022-10-19T05:24:22.481Z,58.99
2022-10-19T05:25:22.465Z,60.34
2022-10-19T05:26:22.364Z,59.65
2022-10-19T05:27:22.463Z,60.00
2022-10-19T05:28:22.406Z,60.19
2022-10-19T05:29:22.464Z,60.05
2022-10-19T05:30:22.336Z,58.78
2022-10-19T05:31:22.362Z,60.66
2022-10-19T05:32:22.383Z,60.94
2022-10-19T05:33:22.366Z,55.85
2022-10-19T05:34:22.303Z,60.19
2022-10-19T05:35:23.159Z,60.18
2022-10-19T05:36:22.393Z,59.68
2022-10-19T05:37:22.312Z,60.42
2022-10-19T05:38:22.357Z,58.31
2022-10-19T05:39:22.336Z,59.28
2022-10-19T05:40:22.280Z,59.88
2022-10-19T05:41:22.189Z,59.75
2022-10-19T05:42:22.402Z,59.37
2022-10-19T05:43:22.234Z,59.51
2022-10-19T05:44:23.373Z,59.13
2022-10-19T05:45:22.304Z,59.75
2022-10-19T05:46:22.240Z,60.77
2022-10-19T05:47:26.194Z,57.99
2022-10-19T05:48:23.206Z,60.56
2022-10-19T05:49:22.182Z,60.38
2022-10-19T05:50:22.171Z,57.83
2022-10-19T05:51:22.149Z,60.20
2022-10-19T05:52:22.219Z,58.65
2022-10-19T05:53:22.104Z,58.89
2022-10-19T05:54:23.849Z,59.32
2022-10-19T05:55:22.105Z,56.26
2022-10-19T05:56:22.086Z,58.79
2022-10-19T05:57:22.053Z,58.42
2022-10-19T05:58:22.043Z,58.30
2022-10-19T05:59:23.135Z,59.35
2022-10-19T06:00:22.091Z,60.25
2022-10-19T06:01:22.192Z,57.26
2022-10-19T06:02:22.016Z,59.05
2022-10-19T06:03:22.057Z,57.39
2022-10-19T06:04:22.171Z,57.48
2022-10-19T06:05:22.008Z,57.02
2022-10-19T06:06:22.045Z,59.13
2022-10-19T06:07:21.997Z,57.34
2022-10-19T06:08:22.001Z,57.50
2022-10-19T06:09:22.313Z,55.69
2022-10-19T06:10:22.034Z,56.37
2022-10-19T06:11:22.150Z,56.16
2022-10-19T06:12:24.963Z,57.91
2022-10-19T06:13:23.700Z,57.07
2022-10-19T06:14:22.010Z,53.32
2022-10-19T06:15:21.938Z,55.82
2022-10-19T06:16:22.044Z,54.06
2022-10-19T06:17:21.933Z,56.69
2022-10-19T06:18:22.875Z,55.93
2022-10-19T06:19:21.907Z,56.40
2022-10-19T06:20:21.842Z,56.39
2022-10-19T06:21:21.917Z,55.98
2022-10-19T06:22:21.830Z,56.10
2022-10-19T06:23:22.751Z,54.85
2022-10-19T06:24:21.828Z,56.31
2022-10-19T06:25:24.320Z,54.27
2022-10-19T06:26:21.976Z,53.23
2022-10-19T06:27:21.825Z,57.66
2022-10-19T06:28:21.861Z,57.49
2022-10-19T06:29:21.970Z,54.96
2022-10-19T06:30:22.393Z,53.34
2022-10-19T06:31:21.776Z,55.70
2022-10-19T06:32:21.721Z,57.76
2022-10-19T06:33:21.729Z,58.10
2022-10-19T06:34:21.781Z,58.67
2022-10-19T06:35:22.461Z,56.27
2022-10-19T06:36:21.795Z,58.60
2022-10-19T06:37:22.220Z,54.00
2022-10-19T06:38:21.712Z,57.28
2022-10-19T06:39:21.770Z,57.28
2022-10-19T06:40:21.833Z,57.08
2022-10-19T06:41:21.674Z,55.83
2022-10-19T06:42:22.005Z,56.83
2022-10-19T06:43:21.686Z,59.09
2022-10-19T06:44:21.743Z,58.30
2022-10-19T06:45:21.606Z,56.78
2022-10-19T06:46:21.614Z,56.71
2022-10-19T06:47:21.711Z,58.28
2022-10-19T06:48:21.651Z,58.30
2022-10-19T06:49:22.345Z,55.66
2022-10-19T06:50:21.595Z,57.35
2022-10-19T06:51:21.605Z,60.34
2022-10-19T06:52:22.606Z,58.55
2022-10-19T06:53:21.555Z,58.53
2022-10-19T06:54:21.536Z,57.45
2022-10-19T06:55:21.539Z,57.32
2022-10-19T06:56:21.838Z,56.69
2022-10-19T06:57:21.580Z,55.95
2022-10-19T06:58:21.598Z,55.47
2022-10-19T06:59:21.604Z,56.17
2022-10-19T07:00:21.524Z,57.96
2022-10-19T07:01:21.620Z,56.98
2022-10-19T07:02:21.563Z,55.85
2022-10-19T07:03:21.426Z,55.86
2022-10-19T07:04:21.475Z,58.10
2022-10-19T07:05:21.438Z,56.34
2022-10-19T07:06:21.655Z,54.53
2022-10-19T07:07:21.426Z,58.38
2022-10-19T07:08:22.406Z,55.58
2022-10-19T07:09:21.420Z,57.59
2022-10-19T07:10:21.490Z,58.24
2022-10-19T07:11:21.502Z,55.22
2022-10-19T07:12:21.540Z,57.75
2022-10-19T07:13:21.537Z,54.15
2022-10-19T07:14:21.413Z,57.47
2022-10-19T07:15:21.358Z,54.92
2022-10-19T07:16:22.593Z,56.75
2022-10-19T07:17:22.404Z,58.38
2022-10-19T07:18:21.356Z,57.26
2022-10-19T07:19:21.346Z,61.16
2022-10-19T07:20:21.948Z,55.37
2022-10-19T07:21:21.939Z,57.13
2022-10-19T07:22:27.132Z,58.51
2022-10-19T07:23:22.314Z,60.21
2022-10-19T07:24:21.251Z,56.28
2022-10-19T07:25:21.406Z,55.69
2022-10-19T07:26:21.335Z,59.78
2022-10-19T07:27:21.222Z,58.53
2022-10-19T07:28:21.374Z,56.93
2022-10-19T07:29:21.303Z,55.31
2022-10-19T07:30:21.293Z,59.52
2022-10-19T07:31:21.226Z,57.89
2022-10-19T07:32:21.397Z,60.13
2022-10-19T07:33:21.154Z,58.81
2022-10-19T07:34:24.188Z,59.12
2022-10-19T07:35:21.226Z,57.92
2022-10-19T07:36:21.157Z,58.90
2022-10-19T07:37:21.381Z,58.16
2022-10-19T07:38:21.171Z,57.54
2022-10-19T07:39:21.038Z,58.66
2022-10-19T07:40:22.137Z,58.33
2022-10-19T07:41:21.092Z,56.01
2022-10-19T07:43:21.180Z,55.09
2022-10-19T07:44:21.218Z,55.92
2022-10-19T07:45:21.089Z,56.16
2022-10-19T07:46:21.094Z,60.50
2022-10-19T07:47:21.695Z,55.39
2022-10-19T07:48:21.020Z,57.78
2022-10-19T07:49:21.099Z,57.16
2022-10-19T07:50:21.015Z,54.02
2022-10-19T07:51:21.206Z,55.04
2022-10-19T07:52:21.104Z,58.16
2022-10-19T07:53:20.983Z,54.62
2022-10-19T07:54:21.217Z,57.54
2022-10-19T07:55:20.991Z,57.57
2022-10-19T07:56:21.225Z,57.55
2022-10-19T07:57:20.908Z,56.83
2022-10-19T07:58:20.954Z,59.30
2022-10-19T07:59:21.046Z,56.10
2022-10-19T08:00:21.010Z,56.73
2022-10-19T08:01:21.049Z,57.19
2022-10-19T08:02:20.954Z,57.67
2022-10-19T08:05:22.918Z,59.95
2022-10-19T08:06:20.839Z,53.16
2022-10-19T08:07:20.915Z,56.55
2022-10-19T08:08:20.951Z,53.97
2022-10-19T08:09:51.047Z,54.36
2022-10-19T08:10:22.911Z,54.55
2022-10-19T08:11:20.889Z,55.75
2022-10-19T08:12:20.773Z,58.06
2022-10-19T08:13:20.859Z,56.28
2022-10-19T08:14:20.745Z,53.60
2022-10-19T08:15:20.750Z,56.35
2022-10-19T08:16:21.613Z,60.01
2022-10-19T08:17:20.726Z,56.77
2022-10-19T08:18:21.062Z,56.21
2022-10-19T08:19:20.809Z,59.93
2022-10-19T08:20:20.811Z,57.66
2022-10-19T08:21:20.651Z,56.10
2022-10-19T08:22:20.753Z,54.74
2022-10-19T08:23:21.003Z,54.19
2022-10-19T08:24:20.973Z,56.67
2022-10-19T08:25:20.776Z,58.07
2022-10-19T08:26:20.659Z,55.23
2022-10-19T08:27:20.610Z,57.72
2022-10-19T08:28:20.828Z,55.38
2022-10-19T08:29:20.616Z,57.87
2022-10-19T08:30:21.167Z,57.14
2022-10-19T08:31:20.927Z,59.25
2022-10-19T08:32:24.545Z,58.88
2022-10-19T08:33:20.727Z,55.05
2022-10-19T08:34:20.657Z,56.61
2022-10-19T08:35:20.719Z,55.06
2022-10-19T08:36:20.594Z,55.44
2022-10-19T08:37:40.319Z,55.23
2022-10-19T08:38:21.857Z,58.59
2022-10-19T08:39:20.690Z,56.30
2022-10-19T08:40:20.774Z,57.71
2022-10-19T08:41:20.579Z,57.01
2022-10-19T08:42:20.555Z,59.43
2022-10-19T08:43:20.498Z,57.51
2022-10-19T08:44:21.211Z,55.39
2022-10-19T08:45:20.498Z,55.83
2022-10-19T08:46:20.695Z,58.63
2022-10-19T08:47:23.249Z,55.47
2022-10-19T08:48:21.504Z,54.18
2022-10-19T08:49:20.929Z,54.39
2022-10-19T08:50:20.952Z,57.31
2022-10-19T08:51:21.835Z,56.69
2022-10-19T08:52:21.650Z,56.02
2022-10-19T08:53:20.397Z,56.10
2022-10-19T08:54:20.787Z,54.33
2022-10-19T08:55:20.859Z,55.00
2022-10-19T08:56:38.911Z,51.90
2022-10-19T08:57:22.621Z,58.48
2022-10-19T08:58:20.386Z,56.58
2022-10-19T08:59:20.396Z,55.61
2022-10-19T09:00:20.491Z,56.33
2022-10-19T09:01:20.550Z,58.39
2022-10-19T09:02:20.251Z,60.14
2022-10-19T09:03:32.128Z,57.10
2022-10-19T09:04:21.423Z,59.30
2022-10-19T09:05:20.336Z,55.84
2022-10-19T09:06:21.539Z,58.44
2022-10-19T09:07:20.174Z,58.37
2022-10-19T09:08:20.328Z,57.71
2022-10-19T09:09:20.293Z,56.87
2022-10-19T09:10:20.299Z,56.20
2022-10-19T09:11:20.461Z,56.45
2022-10-19T09:12:20.416Z,55.48
2022-10-19T09:13:20.158Z,58.16
2022-10-19T09:14:20.189Z,56.93
2022-10-19T09:15:20.364Z,57.09
2022-10-19T09:16:20.230Z,56.32
2022-10-19T09:17:20.181Z,58.29
2022-10-19T09:18:20.269Z,57.45
2022-10-19T09:19:20.083Z,55.11
2022-10-19T09:20:20.891Z,58.01
2022-10-19T09:21:20.330Z,58.19
2022-10-19T09:22:20.928Z,57.32
2022-10-19T09:23:20.197Z,56.96
2022-10-19T09:24:20.222Z,56.82
2022-10-19T09:25:21.015Z,57.78
2022-10-19T09:26:20.050Z,55.97
2022-10-19T09:27:20.149Z,57.31
2022-10-19T09:28:20.037Z,57.62
2022-10-19T09:29:20.014Z,56.50
2022-10-19T09:30:20.668Z,54.23
2022-10-19T09:31:20.047Z,56.31
2022-10-19T09:32:20.169Z,56.75
2022-10-19T09:33:20.015Z,55.27
2022-10-19T09:34:19.955Z,56.31
2022-10-19T09:35:20.035Z,55.65
2022-10-19T09:36:22.761Z,58.60
2022-10-19T09:37:26.106Z,58.67
2022-10-19T09:38:21.198Z,60.39
2022-10-19T09:39:20.894Z,59.69
2022-10-19T09:40:20.799Z,56.44
2022-10-19T09:41:20.607Z,56.64
2022-10-19T09:42:19.829Z,56.97
2022-10-19T09:43:19.962Z,56.14
2022-10-19T09:44:21.110Z,56.17
2022-10-19T09:45:19.999Z,57.31
2022-10-19T09:46:20.955Z,58.42
2022-10-19T09:47:20.349Z,55.69
2022-10-19T09:48:21.934Z,54.91
2022-10-19T09:49:20.588Z,55.64
2022-10-19T09:50:19.845Z,55.69
2022-10-19T09:51:21.028Z,56.00
2022-10-19T09:52:19.894Z,57.90
2022-10-19T09:53:19.887Z,56.14
2022-10-19T09:54:19.846Z,55.24
2022-10-19T09:55:20.032Z,57.03
2022-10-19T09:56:19.912Z,57.16
2022-10-19T09:57:19.719Z,57.21
2022-10-19T09:58:19.929Z,60.90
2022-10-19T09:59:19.780Z,57.39
2022-10-19T10:00:19.721Z,58.86
2022-10-19T10:01:19.898Z,58.47
2022-10-19T10:02:19.690Z,55.04
2022-10-19T10:03:19.680Z,58.34
2022-10-19T10:04:19.668Z,56.47
2022-10-19T10:05:19.719Z,58.01
2022-10-19T10:06:19.892Z,58.50
2022-10-19T10:07:19.760Z,57.78
2022-10-19T10:08:19.693Z,58.28
2022-10-19T10:09:19.633Z,55.32
2022-10-19T10:10:19.720Z,57.24
2022-10-19T10:11:19.644Z,57.75
2022-10-19T10:12:19.701Z,57.16
2022-10-19T10:13:19.655Z,56.08
2022-10-19T10:14:19.599Z,57.98
2022-10-19T10:15:19.697Z,60.93
2022-10-19T10:16:19.556Z,55.91
2022-10-19T10:17:19.896Z,57.53
2022-10-19T10:18:19.673Z,58.17
2022-10-19T10:19:20.270Z,59.29
2022-10-19T10:20:20.448Z,59.34
2022-10-19T10:21:24.413Z,59.22
2022-10-19T10:22:20.504Z,57.02
2022-10-19T10:23:19.578Z,55.80
2022-10-19T10:24:19.569Z,56.05
2022-10-19T10:25:19.666Z,59.63
2022-10-19T10:26:19.453Z,56.97
2022-10-19T10:27:19.459Z,57.82
2022-10-19T10:28:19.402Z,56.74
2022-10-19T10:29:19.466Z,56.13
2022-10-19T10:30:19.414Z,55.79
2022-10-19T10:31:19.395Z,55.34
2022-10-19T10:32:19.378Z,57.30
2022-10-19T10:33:27.238Z,56.02
2022-10-19T10:34:30.277Z,58.19
2022-10-19T10:35:21.428Z,56.26
2022-10-19T10:36:19.558Z,56.64
2022-10-19T10:37:19.402Z,58.52
2022-10-19T10:38:19.309Z,57.60
2022-10-19T10:39:19.491Z,59.58
2022-10-19T10:40:22.675Z,54.22
2022-10-19T10:41:20.354Z,57.93
2022-10-19T10:42:19.285Z,59.02
2022-10-19T10:43:19.206Z,56.99
2022-10-19T10:44:19.364Z,58.07
2022-10-19T10:45:19.271Z,59.81
2022-10-19T10:46:19.298Z,55.81
2022-10-19T10:47:19.253Z,58.40
2022-10-19T10:48:19.367Z,55.66
2022-10-19T10:49:19.263Z,57.94
2022-10-19T10:50:19.181Z,54.08
2022-10-19T10:51:19.204Z,57.53
2022-10-19T10:52:19.292Z,53.99
2022-10-19T10:53:19.862Z,56.53
2022-10-19T10:54:19.162Z,57.06
2022-10-19T10:55:19.491Z,57.29
2022-10-19T10:56:19.221Z,54.77
2022-10-19T10:57:19.255Z,55.30
2022-10-19T10:58:19.425Z,56.74
2022-10-19T10:59:19.175Z,56.02
2022-10-19T11:00:22.256Z,56.58
2022-10-19T11:01:19.533Z,56.40
2022-10-19T11:02:24.175Z,58.62
2022-10-19T11:03:19.264Z,56.72
2022-10-19T11:04:19.090Z,55.55
2022-10-19T11:05:21.925Z,52.94
2022-10-19T11:06:21.201Z,56.84
2022-10-19T11:07:19.494Z,58.55
2022-10-19T11:08:20.736Z,57.32
2022-10-19T11:09:19.076Z,60.14
2022-10-19T11:10:19.128Z,58.08
2022-10-19T11:11:21.892Z,58.28
2022-10-19T11:12:20.984Z,58.31
2022-10-19T11:13:19.279Z,56.78
2022-10-19T11:14:28.937Z,56.40
2022-10-19T11:16:19.175Z,56.62
2022-10-19T11:17:32.143Z,55.49
2022-10-19T11:18:19.632Z,57.52
2022-10-19T11:19:20.955Z,55.31
2022-10-19T11:20:18.991Z,56.81
2022-10-19T11:21:20.394Z,57.89
2022-10-19T11:22:22.435Z,55.89
2022-10-19T11:23:30.849Z,57.73
2022-10-19T11:24:19.196Z,56.51
2022-10-19T11:25:24.054Z,54.45
2022-10-19T11:26:18.919Z,56.82
2022-10-19T11:27:19.412Z,55.03
2022-10-19T11:28:34.664Z,52.11
2022-10-19T11:29:19.964Z,57.66
2022-10-19T11:30:22.512Z,57.66
2022-10-19T11:31:19.718Z,56.57
2022-10-19T11:32:20.020Z,54.10
2022-10-19T11:33:18.816Z,57.75
2022-10-19T11:34:21.227Z,55.64
2022-10-19T11:35:19.699Z,56.39
2022-10-19T11:36:20.331Z,55.30
2022-10-19T11:37:22.010Z,56.31
2022-10-19T11:38:43.173Z,57.50
2022-10-19T11:39:31.658Z,51.89
2022-10-19T11:40:24.956Z,52.94
2022-10-19T11:41:20.070Z,55.15
2022-10-19T11:42:19.556Z,55.84
2022-10-19T11:43:22.360Z,55.98
2022-10-19T11:44:19.200Z,53.52
2022-10-19T11:45:25.110Z,55.95
2022-10-19T11:46:40.722Z,53.52
2022-10-19T11:47:23.354Z,55.02
2022-10-19T11:48:19.180Z,56.42
2022-10-19T11:49:19.397Z,56.51
2022-10-19T11:50:29.613Z,55.24
2022-10-19T11:51:21.714Z,57.52
2022-10-19T11:52:19.540Z,56.32
2022-10-19T11:53:42.589Z,56.53
2022-10-19T11:54:26.905Z,54.94
2022-10-19T11:55:30.500Z,55.49
2022-10-19T11:56:34.785Z,57.47
2022-10-19T11:57:21.486Z,54.81
2022-10-19T11:58:38.686Z,57.56
2022-10-19T11:59:18.902Z,53.50
2022-10-19T12:00:38.275Z,54.58
2022-10-19T12:01:21.146Z,53.67
2022-10-19T12:02:19.271Z,56.50
2022-10-19T12:03:21.355Z,54.33
2022-10-19T12:04:18.572Z,53.43
2022-10-19T12:05:19.438Z,54.92
2022-10-19T12:06:18.485Z,55.52
2022-10-19T12:07:18.558Z,55.41
2022-10-19T12:09:18.390Z,56.45
2022-10-19T12:10:19.140Z,54.43
2022-10-19T12:11:19.399Z,55.93
2022-10-19T12:12:18.347Z,55.13
2022-10-19T12:13:18.444Z,56.22
2022-10-19T12:14:18.463Z,55.91
2022-10-19T12:15:18.792Z,56.28
2022-10-19T12:16:18.690Z,55.90
2022-10-19T12:17:20.894Z,56.46
2022-10-19T12:18:18.586Z,54.12
2022-10-19T12:19:21.577Z,54.00
2022-10-19T12:20:24.097Z,54.51
2022-10-19T12:21:18.369Z,53.68
2022-10-19T12:22:18.389Z,52.51
2022-10-19T12:23:18.519Z,54.86
2022-10-19T12:24:18.888Z,55.40
2022-10-19T12:25:18.832Z,56.17
2022-10-19T12:27:18.594Z,69.20
2022-10-19T12:28:23.622Z,60.05
2022-10-19T12:29:20.843Z,54.38
2022-10-19T12:30:20.784Z,55.39
2022-10-19T12:31:18.241Z,54.63
2022-10-19T12:32:19.011Z,55.12
2022-10-19T12:33:18.685Z,57.19
2022-10-19T12:34:18.385Z,56.09
2022-10-19T12:36:19.720Z,52.99
2022-10-19T12:37:26.546Z,52.73
2022-10-19T12:38:38.749Z,53.92
2022-10-19T12:39:27.233Z,55.63
2022-10-19T12:40:18.615Z,56.34
2022-10-19T12:41:19.228Z,55.35
2022-10-19T12:42:20.337Z,55.42
2022-10-19T12:43:18.729Z,54.81
2022-10-19T12:44:18.456Z,55.14
2022-10-19T12:45:25.050Z,53.53
2022-10-19T12:46:20.287Z,54.33
2022-10-19T12:47:19.920Z,56.60
2022-10-19T12:48:23.417Z,56.30
2022-10-19T12:49:18.137Z,55.27
2022-10-19T12:50:25.287Z,55.26
2022-10-19T12:51:20.776Z,52.87
2022-10-19T12:52:18.148Z,53.46
2022-10-19T12:53:19.593Z,57.13
2022-10-19T12:54:17.999Z,54.64
2022-10-19T12:55:20.268Z,57.49
2022-10-19T12:56:18.095Z,57.20
2022-10-19T12:57:22.658Z,55.33
2022-10-19T12:58:28.035Z,53.93
2022-10-19T12:59:17.966Z,55.15
2022-10-19T13:00:20.928Z,55.04
2022-10-19T13:01:26.448Z,55.53
2022-10-19T13:02:17.948Z,55.04
2022-10-19T13:03:18.359Z,56.91
2022-10-19T13:04:17.959Z,55.88
2022-10-19T13:05:18.261Z,56.92
2022-10-19T13:12:00.666Z,55.72
2022-10-19T13:12:59.873Z,54.97
2022-10-19T13:13:59.985Z,51.72
2022-10-19T13:15:01.279Z,55.40
2022-10-19T13:16:06.808Z,54.87
2022-10-19T13:17:06.926Z,53.27
2022-10-19T13:18:00.302Z,54.74
2022-10-19T13:18:59.200Z,55.15
2022-10-19T13:19:59.475Z,53.04